My Meet Scores
Alexandra Murawski, Unattached - MyMeetScores.com
Top100 | Top Teams | Upcoming Meets | Completed Meets | Latest | Add Scores | Help| Support | Bookmark and Share

Alexandra Murawski, Unattached
Personal Bests
LevelVault BarsBeamFloorAA
XG9.0009.250 9.1009.35036.175
XS8.9009.500 8.5008.65035.550
Meet Scores
Date Meet Team Session Level Division Vault Bars Beam Floor AA
2020-03-07 Holiday Costume Cup 2020 Unattached 09 XG Older 8.350 12 9.150 4T 8.850 7 8.925 9 35.275 10
2020-02-28 2020 February Flip Invitational Cartwheels, Etc. 4 XG 15 up 8.800 6 9.000 5 9.025 4T 9.350 5T 36.175 3
2020-02-09 Flip-Flop Gymnastics Local Meet Cartwheels, Etc. 2 XG 15 yrs. 7.900 31T 8.300 34 8.600 28 8.800 36T 33.600 35
2020-01-24 2020 Kinetic Kids Invitational CT-Unattached 7 XG Sr B 9.000 3 8.650 5T 8.800 2 8.975 2 35.425 2
2019-12-14 2019 Holiday Classic at University of Bridgep Cartwheels, Etc. 5 XG SR 8.900 5 8.600 5T 8.500 7T 8.100 11 34.100 9
2019-04-27 Xcel Gold, Platinum, Diamond State Championsh Cartwheels, Etc. 2 XG Sr C 8.600 55T 8.800 16 9.100 18 8.800 38T 35.300 23T
2019-01-25 Kinetic Kids Invitational 2019 Cartwheels, Etc. 6 XG Sr B 8.550 11 9.150 4 8.000 11 8.700 11 34.400 10
2019-01-11 New Year's Invitational Cartwheels, Etc. E XG Sr B 8.450 8T 8.300 7T 7.800 10T 9.050 9T 33.600 11
2018-04-21 2018 Connecticut XG, XP, XD State Championships Cartwheels, Etc. 5 XG Jr. F 8.150 47T 8.875 27 8.700 29T 8.500 53 34.225 42T
2018-03-01 Holiday Costume Cup 2018 Cartwheels, Etc. 10 XG Sr A 8.350 10 9.100 4 8.900 6 8.900 5T 35.250 7
2018-01-19 Kinetic Kids Invitational Cartwheels, Etc. 6 XG Sr A 8.350 7 8.800 7 7.900 5 8.725 8 33.775 7
2018-01-12 DGS Invitational Cartwheels, Etc. 7A XG 13 yrs. 8.375 7 9.100 3 8.150 7T 8.450 5T 34.075 7
2017-12-15 Reindeer Games 2017 Cartwheels, Etc. 2 XG Inter 8.400 13 9.000 6T 8.350 13 8.700 10T 34.450 13
2017-04-29 Xcel Gold, Platinum, Diamond State Championships Cartwheels, Etc. 7 XG Jr. B 8.600 11T 8.750 7 7.500 14 8.700 10T 33.550 13
2017-03-05 TNT Gymnastics Cartwheels, Etc. 2 XG Jr B 8.400 50T 7.850 53T 8.050 49 8.600 56 32.900 55
2017-01-13 Northeast Invitational Cartwheels, Etc. 8 XG 12 yrs. 8.200 8 9.250 2 8.000 8 7.700 9 33.150 8
2016-04-23 2016 Connecticut XG, XP, XD State Meet Cartwheels, Etc. 3 XG Ch.C 8.400 13T 8.400 14 7.650 16 8.550 13 33.000 14
2016-01-28 2016 American Invitational Cartwheels, Etc. 9A XG Child 8.300 13 9.025 8 8.600 16 8.350 18T 34.275 16
2016-01-15 DGS Invitational Cartwheels, Etc. B4 XG 10-11 yrs. 8.300 8 8.750 6T 8.150 8 8.400 8T 33.600 8
2015-03-05 Holiday Costume Cup 2015 Cartwheels, Etc. 9 XS Jr B 8.900 2 9.500 2T 8.500 13 8.650 11 35.550 7
Get your scores on
a t-shirt, pin, or hoodie

www.lazysuits.com